sensor_id;sensor_type;location;lat;lon;timestamp;temperature;humidity
19864;DHT22;10094;48.820;9.226;2022-10-26T00:01:24;13.40;99.90
19864;DHT22;10094;48.820;9.226;2022-10-26T00:08:07;13.50;99.90
19864;DHT22;10094;48.820;9.226;2022-10-26T00:14:49;13.20;99.90
19864;DHT22;10094;48.820;9.226;2022-10-26T00:21:31;13.40;99.90
19864;DHT22;10094;48.820;9.226;2022-10-26T00:28:14;13.40;99.90
19864;DHT22;10094;48.820;9.226;2022-10-26T00:34:56;13.40;99.90
19864;DHT22;10094;48.820;9.226;2022-10-26T00:41:57;13.50;99.90
19864;DHT22;10094;48.820;9.226;2022-10-26T00:48:45;13.50;99.90
19864;DHT22;10094;48.820;9.226;2022-10-26T00:55:34;13.50;99.90
19864;DHT22;10094;48.820;9.226;2022-10-26T01:02:18;13.60;99.90
19864;DHT22;10094;48.820;9.226;2022-10-26T01:09:03;13.70;99.90
19864;DHT22;10094;48.820;9.226;2022-10-26T01:23:10;13.80;99.90
19864;DHT22;10094;48.820;9.226;2022-10-26T01:30:19;13.70;99.90
19864;DHT22;10094;48.820;9.226;2022-10-26T01:37:09;13.60;99.90
19864;DHT22;10094;48.820;9.226;2022-10-26T01:51:21;13.70;99.90
19864;DHT22;10094;48.820;9.226;2022-10-26T02:11:58;13.50;99.90
19864;DHT22;10094;48.820;9.226;2022-10-26T02:26:09;13.40;99.90
19864;DHT22;10094;48.820;9.226;2022-10-26T02:32:55;13.40;99.90
19864;DHT22;10094;48.820;9.226;2022-10-26T02:39:39;13.40;99.90
19864;DHT22;10094;48.820;9.226;2022-10-26T02:46:24;13.40;99.90
19864;DHT22;10094;48.820;9.226;2022-10-26T02:53:28;13.30;99.90
19864;DHT22;10094;48.820;9.226;2022-10-26T03:00:14;13.30;99.90
19864;DHT22;10094;48.820;9.226;2022-10-26T03:06:57;13.20;99.90
19864;DHT22;10094;48.820;9.226;2022-10-26T03:13:39;13.30;99.90
19864;DHT22;10094;48.820;9.226;2022-10-26T03:20:22;13.30;99.90
19864;DHT22;10094;48.820;9.226;2022-10-26T03:27:05;13.20;99.90
19864;DHT22;10094;48.820;9.226;2022-10-26T03:33:47;13.20;99.90
19864;DHT22;10094;48.820;9.226;2022-10-26T03:40:29;13.30;99.90
19864;DHT22;10094;48.820;9.226;2022-10-26T03:47:12;13.20;99.90
19864;DHT22;10094;48.820;9.226;2022-10-26T03:53:55;13.20;99.90
19864;DHT22;10094;48.820;9.226;2022-10-26T04:00:37;13.30;99.90
19864;DHT22;10094;48.820;9.226;2022-10-26T04:07:19;13.40;99.90
19864;DHT22;10094;48.820;9.226;2022-10-26T04:14:02;13.40;99.90
19864;DHT22;10094;48.820;9.226;2022-10-26T04:20:44;13.50;99.90
19864;DHT22;10094;48.820;9.226;2022-10-26T04:27:27;13.40;99.90
19864;DHT22;10094;48.820;9.226;2022-10-26T04:34:09;13.40;99.90
19864;DHT22;10094;48.820;9.226;2022-10-26T04:40:53;13.50;99.90
19864;DHT22;10094;48.820;9.226;2022-10-26T04:47:36;13.60;99.90
19864;DHT22;10094;48.820;9.226;2022-10-26T04:54:18;13.50;99.90
19864;DHT22;10094;48.820;9.226;2022-10-26T05:01:01;13.60;99.90
19864;DHT22;10094;48.820;9.226;2022-10-26T05:07:53;13.60;99.90
19864;DHT22;10094;48.820;9.226;2022-10-26T05:14:35;13.70;99.90
19864;DHT22;10094;48.820;9.226;2022-10-26T05:21:17;13.70;99.90
19864;DHT22;10094;48.820;9.226;2022-10-26T05:28:05;13.70;99.90
19864;DHT22;10094;48.820;9.226;2022-10-26T05:34:47;13.70;99.90
19864;DHT22;10094;48.820;9.226;2022-10-26T05:41:31;13.70;99.90
19864;DHT22;10094;48.820;9.226;2022-10-26T05:48:13;13.80;99.90
19864;DHT22;10094;48.820;9.226;2022-10-26T05:54:55;13.80;99.90
19864;DHT22;10094;48.820;9.226;2022-10-26T06:08:45;14.00;99.90
19864;DHT22;10094;48.820;9.226;2022-10-26T06:15:29;14.10;99.90
19864;DHT22;10094;48.820;9.226;2022-10-26T06:22:44;14.10;99.90
19864;DHT22;10094;48.820;9.226;2022-10-26T06:30:00;14.10;99.90
19864;DHT22;10094;48.820;9.226;2022-10-26T06:36:41;14.20;99.90
19864;DHT22;10094;48.820;9.226;2022-10-26T06:43:30;14.30;99.90
19864;DHT22;10094;48.820;9.226;2022-10-26T06:56:59;14.50;99.90
19864;DHT22;10094;48.820;9.226;2022-10-26T07:04:02;14.50;99.90
19864;DHT22;10094;48.820;9.226;2022-10-26T07:10:45;14.40;99.90
19864;DHT22;10094;48.820;9.226;2022-10-26T07:17:28;14.30;99.90
19864;DHT22;10094;48.820;9.226;2022-10-26T07:24:11;14.30;99.90
19864;DHT22;10094;48.820;9.226;2022-10-26T07:30:54;14.40;99.90
19864;DHT22;10094;48.820;9.226;2022-10-26T07:37:39;14.60;99.90
19864;DHT22;10094;48.820;9.226;2022-10-26T07:44:21;14.50;99.90
19864;DHT22;10094;48.820;9.226;2022-10-26T07:51:04;14.70;99.90
19864;DHT22;10094;48.820;9.226;2022-10-26T07:57:46;14.80;99.90
19864;DHT22;10094;48.820;9.226;2022-10-26T08:04:35;15.10;99.90
19864;DHT22;10094;48.820;9.226;2022-10-26T08:11:17;15.30;99.90
19864;DHT22;10094;48.820;9.226;2022-10-26T08:18:00;15.70;99.90
19864;DHT22;10094;48.820;9.226;2022-10-26T08:24:42;16.10;99.90
19864;DHT22;10094;48.820;9.226;2022-10-26T08:31:28;16.50;99.90
19864;DHT22;10094;48.820;9.226;2022-10-26T08:38:10;16.80;99.90
19864;DHT22;10094;48.820;9.226;2022-10-26T08:44:58;17.00;99.90
19864;DHT22;10094;48.820;9.226;2022-10-26T08:51:42;17.10;99.90
19864;DHT22;10094;48.820;9.226;2022-10-26T08:58:35;17.30;99.90
19864;DHT22;10094;48.820;9.226;2022-10-26T09:05:35;17.30;99.90
19864;DHT22;10094;48.820;9.226;2022-10-26T09:26:54;18.70;99.90
19864;DHT22;10094;48.820;9.226;2022-10-26T09:33:38;19.40;99.90
19864;DHT22;10094;48.820;9.226;2022-10-26T09:40:36;19.70;99.90
19864;DHT22;10094;48.820;9.226;2022-10-26T09:47:28;21.20;99.90
19864;DHT22;10094;48.820;9.226;2022-10-26T09:54:16;22.60;99.90
19864;DHT22;10094;48.820;9.226;2022-10-26T10:01:00;24.60;99.90
19864;DHT22;10094;48.820;9.226;2022-10-26T10:07:42;24.60;99.90
19864;DHT22;10094;48.820;9.226;2022-10-26T10:21:09;22.40;99.90
19864;DHT22;10094;48.820;9.226;2022-10-26T10:27:52;21.50;99.90
19864;DHT22;10094;48.820;9.226;2022-10-26T10:34:35;21.30;99.90
19864;DHT22;10094;48.820;9.226;2022-10-26T10:55:15;22.60;99.90
19864;DHT22;10094;48.820;9.226;2022-10-26T11:08:54;21.90;99.90
19864;DHT22;10094;48.820;9.226;2022-10-26T11:16:01;21.90;99.90
19864;DHT22;10094;48.820;9.226;2022-10-26T11:36:31;22.80;99.90
19864;DHT22;10094;48.820;9.226;2022-10-26T11:43:22;22.90;99.90
19864;DHT22;10094;48.820;9.226;2022-10-26T11:56:59;23.10;99.90
19864;DHT22;10094;48.820;9.226;2022-10-26T12:03:45;23.30;99.90
19864;DHT22;10094;48.820;9.226;2022-10-26T12:10:33;23.40;99.90
19864;DHT22;10094;48.820;9.226;2022-10-26T12:17:37;23.50;99.90
19864;DHT22;10094;48.820;9.226;2022-10-26T12:24:30;23.40;99.90
19864;DHT22;10094;48.820;9.226;2022-10-26T12:45:18;23.60;99.90
19864;DHT22;10094;48.820;9.226;2022-10-26T12:52:01;23.30;99.90
19864;DHT22;10094;48.820;9.226;2022-10-26T12:59:01;23.50;99.90
19864;DHT22;10094;48.820;9.226;2022-10-26T13:13:01;22.60;99.90
19864;DHT22;10094;48.820;9.226;2022-10-26T13:19:47;22.80;99.90
19864;DHT22;10094;48.820;9.226;2022-10-26T13:26:30;22.80;99.90
19864;DHT22;10094;48.820;9.226;2022-10-26T13:33:22;23.00;99.90
19864;DHT22;10094;48.820;9.226;2022-10-26T13:40:06;22.90;99.90
19864;DHT22;10094;48.820;9.226;2022-10-26T13:46:56;23.10;99.90
19864;DHT22;10094;48.820;9.226;2022-10-26T13:53:46;23.10;99.90
19864;DHT22;10094;48.820;9.226;2022-10-26T14:00:30;22.90;99.90
19864;DHT22;10094;48.820;9.226;2022-10-26T14:07:19;22.80;99.90
19864;DHT22;10094;48.820;9.226;2022-10-26T14:14:04;22.40;99.90
19864;DHT22;10094;48.820;9.226;2022-10-26T14:20:59;22.10;99.90
19864;DHT22;10094;48.820;9.226;2022-10-26T14:27:42;21.90;99.90
19864;DHT22;10094;48.820;9.226;2022-10-26T14:34:25;21.80;99.90
19864;DHT22;10094;48.820;9.226;2022-10-26T14:41:08;21.90;99.90
19864;DHT22;10094;48.820;9.226;2022-10-26T14:47:54;21.80;99.90
19864;DHT22;10094;48.820;9.226;2022-10-26T14:54:36;22.00;99.90
19864;DHT22;10094;48.820;9.226;2022-10-26T15:01:23;21.90;99.90
19864;DHT22;10094;48.820;9.226;2022-10-26T15:08:44;21.80;99.90
19864;DHT22;10094;48.820;9.226;2022-10-26T15:15:38;21.60;99.90
19864;DHT22;10094;48.820;9.226;2022-10-26T15:22:23;21.50;99.90
19864;DHT22;10094;48.820;9.226;2022-10-26T15:29:34;21.30;99.90
19864;DHT22;10094;48.820;9.226;2022-10-26T15:36:20;21.20;99.90
19864;DHT22;10094;48.820;9.226;2022-10-26T15:43:10;20.90;99.90
19864;DHT22;10094;48.820;9.226;2022-10-26T15:49:52;20.70;99.90
19864;DHT22;10094;48.820;9.226;2022-10-26T15:56:35;20.40;99.90
19864;DHT22;10094;48.820;9.226;2022-10-26T16:03:20;20.10;99.90
19864;DHT22;10094;48.820;9.226;2022-10-26T16:10:03;19.70;99.90
19864;DHT22;10094;48.820;9.226;2022-10-26T16:16:46;19.30;99.90
19864;DHT22;10094;48.820;9.226;2022-10-26T16:23:29;18.90;99.90
19864;DHT22;10094;48.820;9.226;2022-10-26T16:30:12;18.50;99.90
19864;DHT22;10094;48.820;9.226;2022-10-26T16:36:55;18.10;99.90
19864;DHT22;10094;48.820;9.226;2022-10-26T16:43:39;17.90;99.90
19864;DHT22;10094;48.820;9.226;2022-10-26T16:50:22;17.60;99.90
19864;DHT22;10094;48.820;9.226;2022-10-26T16:57:05;17.40;99.90
19864;DHT22;10094;48.820;9.226;2022-10-26T17:03:49;17.40;99.90
19864;DHT22;10094;48.820;9.226;2022-10-26T17:10:32;17.10;99.90
19864;DHT22;10094;48.820;9.226;2022-10-26T17:17:14;16.90;99.90
19864;DHT22;10094;48.820;9.226;2022-10-26T17:23:57;16.70;99.90
19864;DHT22;10094;48.820;9.226;2022-10-26T17:30:40;16.60;99.90
19864;DHT22;10094;48.820;9.226;2022-10-26T17:37:22;16.50;99.90
19864;DHT22;10094;48.820;9.226;2022-10-26T17:44:05;16.40;99.90
19864;DHT22;10094;48.820;9.226;2022-10-26T17:50:47;16.20;99.90
19864;DHT22;10094;48.820;9.226;2022-10-26T17:57:38;16.00;99.90
19864;DHT22;10094;48.820;9.226;2022-10-26T18:04:21;15.70;99.90
19864;DHT22;10094;48.820;9.226;2022-10-26T18:11:06;15.50;99.90
19864;DHT22;10094;48.820;9.226;2022-10-26T18:17:51;15.50;99.90
19864;DHT22;10094;48.820;9.226;2022-10-26T18:24:41;15.50;99.90
19864;DHT22;10094;48.820;9.226;2022-10-26T18:31:24;15.40;99.90
19864;DHT22;10094;48.820;9.226;2022-10-26T18:38:06;15.30;99.90
19864;DHT22;10094;48.820;9.226;2022-10-26T18:44:49;15.20;99.90
19864;DHT22;10094;48.820;9.226;2022-10-26T18:51:36;15.10;99.90
19864;DHT22;10094;48.820;9.226;2022-10-26T18:58:18;14.90;99.90
19864;DHT22;10094;48.820;9.226;2022-10-26T19:05:01;14.90;99.90
19864;DHT22;10094;48.820;9.226;2022-10-26T19:11:57;14.60;99.90
19864;DHT22;10094;48.820;9.226;2022-10-26T19:18:44;14.40;99.90
19864;DHT22;10094;48.820;9.226;2022-10-26T19:25:27;14.30;99.90
19864;DHT22;10094;48.820;9.226;2022-10-26T19:32:09;14.20;99.90
19864;DHT22;10094;48.820;9.226;2022-10-26T19:38:54;14.10;99.90
19864;DHT22;10094;48.820;9.226;2022-10-26T19:45:37;14.20;99.90
19864;DHT22;10094;48.820;9.226;2022-10-26T19:52:19;14.20;99.90
19864;DHT22;10094;48.820;9.226;2022-10-26T19:59:02;14.30;99.90
19864;DHT22;10094;48.820;9.226;2022-10-26T20:05:44;14.10;99.90
19864;DHT22;10094;48.820;9.226;2022-10-26T20:12:27;14.10;99.90
19864;DHT22;10094;48.820;9.226;2022-10-26T20:19:09;14.00;99.90
19864;DHT22;10094;48.820;9.226;2022-10-26T20:25:54;13.80;99.90
19864;DHT22;10094;48.820;9.226;2022-10-26T20:32:39;13.70;99.90
19864;DHT22;10094;48.820;9.226;2022-10-26T20:39:22;13.60;99.90
19864;DHT22;10094;48.820;9.226;2022-10-26T20:46:16;13.40;99.90
19864;DHT22;10094;48.820;9.226;2022-10-26T21:00:09;13.60;99.90
19864;DHT22;10094;48.820;9.226;2022-10-26T21:06:52;13.50;99.90
19864;DHT22;10094;48.820;9.226;2022-10-26T21:13:34;13.40;99.90
19864;DHT22;10094;48.820;9.226;2022-10-26T21:20:16;13.30;99.90
19864;DHT22;10094;48.820;9.226;2022-10-26T21:26:59;13.40;99.90
19864;DHT22;10094;48.820;9.226;2022-10-26T21:33:42;13.30;99.90
19864;DHT22;10094;48.820;9.226;2022-10-26T21:40:24;13.20;99.90
19864;DHT22;10094;48.820;9.226;2022-10-26T21:47:07;13.20;99.90
19864;DHT22;10094;48.820;9.226;2022-10-26T21:53:50;13.20;99.90
19864;DHT22;10094;48.820;9.226;2022-10-26T22:00:32;13.10;99.90
19864;DHT22;10094;48.820;9.226;2022-10-26T22:07:15;13.00;99.90
19864;DHT22;10094;48.820;9.226;2022-10-26T22:14:01;12.90;99.90
19864;DHT22;10094;48.820;9.226;2022-10-26T22:20:44;12.90;99.90
19864;DHT22;10094;48.820;9.226;2022-10-26T22:27:36;12.90;99.90
19864;DHT22;10094;48.820;9.226;2022-10-26T22:34:18;12.90;99.90
19864;DHT22;10094;48.820;9.226;2022-10-26T22:41:01;12.80;99.90
19864;DHT22;10094;48.820;9.226;2022-10-26T22:47:43;12.90;99.90
19864;DHT22;10094;48.820;9.226;2022-10-26T22:54:25;12.80;99.90
19864;DHT22;10094;48.820;9.226;2022-10-26T23:01:13;13.00;99.90
19864;DHT22;10094;48.820;9.226;2022-10-26T23:07:56;12.70;99.90
19864;DHT22;10094;48.820;9.226;2022-10-26T23:14:38;12.80;99.90
19864;DHT22;10094;48.820;9.226;2022-10-26T23:21:23;13.10;99.90
19864;DHT22;10094;48.820;9.226;2022-10-26T23:28:06;12.50;99.90
19864;DHT22;10094;48.820;9.226;2022-10-26T23:34:48;12.50;99.90
19864;DHT22;10094;48.820;9.226;2022-10-26T23:41:31;12.50;99.90
19864;DHT22;10094;48.820;9.226;2022-10-26T23:48:14;12.60;99.90
19864;DHT22;10094;48.820;9.226;2022-10-26T23:54:56;12.70;99.90
